Ocean Gordon — VZB046 — position and weather

sailwx.info

Track history (hours):
 
Tides and Currents Weather Stations Pressure Air Temp Water Temp Dewpoint Dewpoint Depression Visibility Wind Speed Wind Dir Waves Ship Positions

Ocean Gordon

Last reported at 2017-Oct-22 21:00 UTC. Time now 2017-Oct-22 21:15 UTC.
Position N 49°12' W 123°08'.

Length 15 m; draft 2.3 m.

Type: Tug. MMSI: 316022038.

Date/timePositionNaut miles runAvg speedWind from/ knotsBaromVisibWave heightAir tempDewpointWater temp
2017-Oct-22 21:00N 49°12' W 123°08'0 0.0
2017-Oct-22 20:30N 49°12' W 123°08'0 0.0
2017-Oct-22 20:00N 49°12' W 123°08'2 3.8
2017-Oct-22 19:30N 49°12' W 123°05'5 8.6
2017-Oct-22 18:57N 49°11' W 122°58'2 5.4
2017-Oct-22 18:30N 49°11' W 122°55'0 0.2
2017-Oct-22 18:00N 49°12' W 122°55'2 5.0
2017-Oct-22 17:30N 49°09' W 122°57'3 6.3
2017-Oct-22 17:00N 49°09' W 123°01'1 1.2
2017-Oct-22 16:30N 49°09' W 123°02'0 0.3
2017-Oct-22 16:00N 49°09' W 123°02'2 3.1
2017-Oct-22 15:30N 49°09' W 123°00'0 0.0
2017-Oct-22 15:00N 49°09' W 123°00'3 5.6
2017-Oct-22 14:30N 49°08' W 123°04'4 7.9
2017-Oct-22 14:00N 49°07' W 123°10'3 6.2
2017-Oct-22 13:30N 49°08' W 123°14'3 6.2
2017-Oct-22 13:00N 49°06' W 123°18'3 6.1
2017-Oct-22 12:30N 49°03' W 123°19'5 9.2
2017-Oct-22 12:00N 49°00' W 123°14'4 8.6
2017-Oct-22 11:30N 48°57' W 123°09'4 8.4
2017-Oct-22 11:00N 48°54' W 123°05'4 8.0
2017-Oct-22 10:30N 48°51' W 123°01'4 8.0
2017-Oct-22 10:00N 48°47' W 123°02'4 8.6
2017-Oct-22 09:30N 48°44' W 123°07'4 7.7
2017-Oct-22 09:00N 48°43' W 123°12'3 5.6
2017-Oct-22 08:29N 48°40' W 123°15'3 6.3
2017-Oct-22 08:00N 48°37' W 123°14'3 6.9
2017-Oct-22 07:30N 48°34' W 123°14'3 6.1
2017-Oct-22 07:00N 48°31' W 123°14'4 7.1
2017-Oct-22 06:30N 48°27' W 123°15'3 5.5
2017-Oct-22 06:00N 48°25' W 123°17'3 5.2
2017-Oct-22 05:30N 48°23' W 123°20'3 6.1
2017-Oct-22 05:00N 48°24' W 123°24'1 1.6
2017-Oct-22 04:30N 48°25' W 123°23'0 0.0
2017-Oct-22 04:00N 48°25' W 123°23'0 0.0
2017-Oct-22 03:30N 48°25' W 123°23'0 0.1
2017-Oct-22 03:00N 48°25' W 123°23'1 1.5
2017-Oct-22 02:30N 48°26' W 123°23'0 0.3
2017-Oct-22 02:00N 48°26' W 123°22'1 2.2
2017-Oct-22 01:30N 48°25' W 123°24'4 8.4
2017-Oct-22 01:00N 48°24' W 123°18'4 8.2
2017-Oct-22 00:30N 48°28' W 123°16'4 7.2
2017-Oct-22 00:00N 48°31' W 123°18'3 6.7
2017-Oct-21 23:30N 48°34' W 123°19'4 7.9
2017-Oct-21 22:59N 48°38' W 123°21'4 8.6
2017-Oct-21 22:30N 48°42' W 123°21'5 9.3
2017-Oct-21 22:00N 48°47' W 123°21'5 9.4
2017-Oct-21 21:29N 48°51' W 123°21'3 5.6
2017-Oct-21 21:00N 48°54' W 123°18'5 9.1
2017-Oct-21 20:30N 48°58' W 123°19'4 8.8
2017-Oct-21 20:00N 49°02' W 123°19'5 9.1
2017-Oct-21 19:29N 49°07' W 123°19'4 9.1
2017-Oct-21 19:00N 49°11' W 123°18'4 7.9
2017-Oct-21 18:30N 49°15' W 123°16'510.6
2017-Oct-21 18:00N 49°12' W 123°09'1 1.5
2017-Oct-21 17:30N 49°12' W 123°08'0 0.0
2017-Oct-21 16:59N 49°12' W 123°08'0 0.0
2017-Oct-21 16:30N 49°12' W 123°08'0 0.0
2017-Oct-21 16:00N 49°12' W 123°08'0 0.0
2017-Oct-21 15:30N 49°12' W 123°08'0 0.3
2017-Oct-21 15:00N 49°12' W 123°08'0 0.0
2017-Oct-21 14:30N 49°12' W 123°08'0 0.0
2017-Oct-21 13:30N 49°12' W 123°08'0 0.0
2017-Oct-21 13:00N 49°12' W 123°08'0 0.0
2017-Oct-21 12:30N 49°12' W 123°08'0 0.0
2017-Oct-21 12:00N 49°12' W 123°08'0 0.0
2017-Oct-21 11:30N 49°12' W 123°08'0 0.0
2017-Oct-21 11:00N 49°12' W 123°08'0 0.0
2017-Oct-21 10:30N 49°12' W 123°08'0 0.0
2017-Oct-21 10:00N 49°12' W 123°08'0 0.0
2017-Oct-21 09:30N 49°12' W 123°08'0 0.0
2017-Oct-21 09:00N 49°12' W 123°08'0 0.0
2017-Oct-21 08:30N 49°12' W 123°08'0 0.0
2017-Oct-21 08:00N 49°12' W 123°08'0 0.0
2017-Oct-21 07:30N 49°12' W 123°08'0 0.0
2017-Oct-21 07:00N 49°12' W 123°08'0 0.0
2017-Oct-21 06:30N 49°12' W 123°08'0 0.0
2017-Oct-21 06:00N 49°12' W 123°08'0 0.0
2017-Oct-21 05:30N 49°12' W 123°08'0 0.0
2017-Oct-21 05:00N 49°12' W 123°08'0 0.0
2017-Oct-21 04:30N 49°12' W 123°08'0 0.0
2017-Oct-21 04:00N 49°12' W 123°08'2 4.0
2017-Oct-21 03:30N 49°12' W 123°05'5 7.8
2017-Oct-21 02:56N 49°11' W 122°58'3 7.7
2017-Oct-21 02:30N 49°12' W 122°54'1 1.8
2017-Oct-21 02:00N 49°13' W 122°53'0 0.2
2017-Oct-21 01:30N 49°13' W 122°53'1 1.3
2017-Oct-21 01:00N 49°13' W 122°52'1 2.9
2017-Oct-21 00:30N 49°13' W 122°50'0 0.1
2017-Oct-21 00:00N 49°13' W 122°50'0 0.0
2017-Oct-20 23:30N 49°13' W 122°50'0 0.0
2017-Oct-20 23:00N 49°13' W 122°50'3 5.2
2017-Oct-20 22:30N 49°12' W 122°54'4 7.3
2017-Oct-20 22:00N 49°09' W 122°57'4 7.6
2017-Oct-20 21:30N 49°08' W 123°03'1 1.6
2017-Oct-20 21:00N 49°08' W 123°03'0 0.8
2017-Oct-20 20:30N 49°08' W 123°04'3 6.3
2017-Oct-20 20:00N 49°09' W 122°59'3 6.5
2017-Oct-20 19:30N 49°11' W 122°55'3 5.3
2017-Oct-20 19:00N 49°13' W 122°52'3 4.9
2017-Oct-20 18:30N 49°13' W 122°49'2 4.4
2017-Oct-20 18:00N 49°14' W 122°46'1 2.2
2017-Oct-20 17:30N 49°15' W 122°44'1 1.7
2017-Oct-20 17:00N 49°15' W 122°43'1 2.7
2017-Oct-20 16:30N 49°16' W 122°42'2 3.1
2017-Oct-20 16:00N 49°17' W 122°41'1 1.6
2017-Oct-20 15:30N 49°18' W 122°40'1 1.5
2017-Oct-20 14:55N 49°19' W 122°40'0 0.0
2017-Oct-20 14:24N 49°19' W 122°40'0 0.0
2017-Oct-20 13:29N 49°19' W 122°40'0 0.0
2017-Oct-20 13:00N 49°19' W 122°40'0 0.0
2017-Oct-20 12:30N 49°19' W 122°40'0 0.0
2017-Oct-20 12:00N 49°19' W 122°40'0 0.0
2017-Oct-20 11:30N 49°19' W 122°40'0 0.0
2017-Oct-20 10:59N 49°19' W 122°40'0 0.0
2017-Oct-20 10:30N 49°19' W 122°40'0 0.0
2017-Oct-20 10:00N 49°19' W 122°40'0 0.0
2017-Oct-20 09:29N 49°19' W 122°40'0 0.0
2017-Oct-20 08:55N 49°19' W 122°40'0 0.0
2017-Oct-20 08:30N 49°19' W 122°40'2 3.5
2017-Oct-20 08:00N 49°17' W 122°40'0 0.2
2017-Oct-20 07:30N 49°17' W 122°40'3 6.9
2017-Oct-20 07:00N 49°15' W 122°44'2 4.8
2017-Oct-20 06:30N 49°13' W 122°44'3 5.3
2017-Oct-20 06:00N 49°12' W 122°40'0 0.4
2017-Oct-20 05:30N 49°12' W 122°39'0 0.1
2017-Oct-20 05:00N 49°12' W 122°40'1 2.3
2017-Oct-20 04:30N 49°12' W 122°41'4 7.6
2017-Oct-20 04:00N 49°13' W 122°47'2 3.6
2017-Oct-20 03:27N 49°13' W 122°50'0 0.2
2017-Oct-20 03:00N 49°13' W 122°50'0 0.0
2017-Oct-20 02:30N 49°13' W 122°50'1 2.3
2017-Oct-20 02:00N 49°13' W 122°48'3 6.5
2017-Oct-20 01:30N 49°12' W 122°43'2 3.9
2017-Oct-20 01:00N 49°11' W 122°41'2 4.2
2017-Oct-20 00:30N 49°12' W 122°44'4 7.9
2017-Oct-20 00:00N 49°13' W 122°49'0 0.6
2017-Oct-19 23:30N 49°13' W 122°50'0 0.3
2017-Oct-19 23:00N 49°13' W 122°50'1 2.9
2017-Oct-19 22:30N 49°13' W 122°52'2 3.2
2017-Oct-19 22:00N 49°12' W 122°54'2 4.9
2017-Oct-19 21:30N 49°10' W 122°56'2 3.7
2017-Oct-19 21:00N 49°10' W 122°59'0 0.0
2017-Oct-19 20:30N 49°10' W 122°59'0 0.0
2017-Oct-19 20:00N 49°10' W 122°59'2 4.5
2017-Oct-19 19:30N 49°11' W 122°55'4 7.8
2017-Oct-19 19:00N 49°13' W 122°51'1 1.3
2017-Oct-19 18:30N 49°13' W 122°50'0 0.8
2017-Oct-19 18:00N 49°13' W 122°50'3 5.7
2017-Oct-19 17:30N 49°14' W 122°46'2 3.5
2017-Oct-19 17:00N 49°15' W 122°44'0 0.2
2017-Oct-19 16:24N 49°15' W 122°44'0 0.0
2017-Oct-19 15:50N 49°15' W 122°44'0 0.0
2017-Oct-19 15:28N 49°15' W 122°44'0 0.0
2017-Oct-19 14:58N 49°15' W 122°44'0 0.2
2017-Oct-19 14:30N 49°15' W 122°44'3 6.4
2017-Oct-19 14:00N 49°17' W 122°41'2 3.7
2017-Oct-19 13:30N 49°19' W 122°40'0 0.0
2017-Oct-19 13:00N 49°19' W 122°40'0 0.1
2017-Oct-19 12:30N 49°19' W 122°40'2 3.4
2017-Oct-19 12:00N 49°17' W 122°40'3 5.7
2017-Oct-19 11:30N 49°15' W 122°43'2 4.4
2017-Oct-19 11:00N 49°14' W 122°46'1 2.6
2017-Oct-19 10:30N 49°13' W 122°48'3 6.4
2017-Oct-19 10:00N 49°13' W 122°52'3 6.9
2017-Oct-19 09:30N 49°10' W 122°56'2 4.1
2017-Oct-19 09:00N 49°10' W 122°59'1 2.3
2017-Oct-19 08:30N 49°09' W 123°00'2 3.6
2017-Oct-19 08:00N 49°09' W 123°03'3 6.3
2017-Oct-19 07:30N 49°07' W 123°07'3 6.0
2017-Oct-19 07:00N 49°07' W 123°11'2 4.8
2017-Oct-19 06:30N 49°08' W 123°15'3 5.2
2017-Oct-19 06:00N 49°06' W 123°18'4 7.1
2017-Oct-19 05:30N 49°03' W 123°19'4 9.0
2017-Oct-19 05:00N 48°58' W 123°18'4 8.7
2017-Oct-19 04:30N 48°54' W 123°18'3 5.7
2017-Oct-19 04:00N 48°52' W 123°20'4 7.4
2017-Oct-19 03:30N 48°48' W 123°21'4 8.7
2017-Oct-19 02:59N 48°43' W 123°21'5 8.1
2017-Oct-19 02:20N 48°38' W 123°21'2 7.5
2017-Oct-19 02:00N 48°36' W 123°19'4 7.7
2017-Oct-19 01:30N 48°32' W 123°20'0 0.6
2017-Oct-19 01:00N 48°32' W 123°20'2 4.7
2017-Oct-19 00:30N 48°34' W 123°21'2 4.2
2017-Oct-18 23:58N 48°36' W 123°23'1 2.4
2017-Oct-18 23:27N 48°37' W 123°23'4 8.7
2017-Oct-18 23:00N 48°41' W 123°21'4 8.4
2017-Oct-18 22:30N 48°45' W 123°21'4 6.1
2017-Oct-18 21:54N 48°43' W 123°26'4 8.1
2017-Oct-18 21:25N 48°40' W 123°30'4 8.9
2017-Oct-18 20:59N 48°36' W 123°31'1 1.3
2017-Oct-18 20:21N 48°36' W 123°31'2 4.7
2017-Oct-18 19:59N 48°37' W 123°30'8 5.9
2017-Oct-18 18:40N 48°44' W 123°25'1 6.4
2017-Oct-18 18:27N 48°45' W 123°23'3 6.1
2017-Oct-18 17:59N 48°48' W 123°21'3 6.8
2017-Oct-18 17:29N 48°51' W 123°21'2 5.1
2017-Oct-18 17:00N 48°52' W 123°18'2 3.9
2017-Oct-18 16:30N 48°54' W 123°18'4 7.3
2017-Oct-18 16:00N 48°58' W 123°18'4 7.1
2017-Oct-18 15:30N 49°02' W 123°19'4 7.0
2017-Oct-18 15:00N 49°05' W 123°20'6 6.0
2017-Oct-18 14:00N 49°07' W 123°11'4 7.1
2017-Oct-18 13:30N 49°07' W 123°06'3 6.1
2017-Oct-18 13:00N 49°09' W 123°02'1 2.9
2017-Oct-18 12:30N 49°08' W 123°03'0 0.2
2017-Oct-18 12:00N 49°08' W 123°03'1 1.0
2017-Oct-18 11:30N 49°08' W 123°04'1 2.4
2017-Oct-18 11:00N 49°07' W 123°05'2 3.7
2017-Oct-18 10:30N 49°06' W 123°08'2 3.7
2017-Oct-18 10:00N 49°07' W 123°11'2 4.3
2017-Oct-18 09:30N 49°08' W 123°14'2 3.9
2017-Oct-18 09:00N 49°07' W 123°17'2 3.5
2017-Oct-18 08:29N 49°06' W 123°19'1 2.4
2017-Oct-18 08:00N 49°07' W 123°21'1 2.7
2017-Oct-18 07:30N 49°08' W 123°22'2 3.1
2017-Oct-18 07:00N 49°09' W 123°24'2 3.2
2017-Oct-18 06:30N 49°10' W 123°25'2 3.3
2017-Oct-18 06:00N 49°11' W 123°26'2 3.4
2017-Oct-18 05:30N 49°13' W 123°28'2 3.5
2017-Oct-18 05:00N 49°14' W 123°30'2 3.8
2017-Oct-18 04:30N 49°15' W 123°32'2 4.3
2017-Oct-18 04:00N 49°17' W 123°34'2 4.7
2017-Oct-18 03:30N 49°19' W 123°37'3 5.2
2017-Oct-18 03:00N 49°21' W 123°39'3 5.2
2017-Oct-18 02:30N 49°23' W 123°41'3 5.4
2017-Oct-18 02:00N 49°25' W 123°44'3 5.1
2017-Oct-18 01:30N 49°28' W 123°45'1 1.1
2017-Oct-18 01:00N 49°28' W 123°45'0 0.0
2017-Oct-18 00:30N 49°28' W 123°45'0 0.0
2017-Oct-18 00:00N 49°28' W 123°45'0 0.0
2017-Oct-17 23:30N 49°28' W 123°45'0 0.1
2017-Oct-17 23:00N 49°28' W 123°45'1 2.6
2017-Oct-17 22:30N 49°27' W 123°45'1 2.9
2017-Oct-17 22:00N 49°26' W 123°43'3 6.3
2017-Oct-17 21:30N 49°24' W 123°39'3 6.8
2017-Oct-17 21:00N 49°23' W 123°35'3 5.0
2017-Oct-17 20:30N 49°21' W 123°31'2 3.8
2017-Oct-17 20:00N 49°20' W 123°29'2 3.9
2017-Oct-17 19:30N 49°20' W 123°26'2 4.5
2017-Oct-17 19:00N 49°19' W 123°23'3 5.7
2017-Oct-17 18:30N 49°19' W 123°18'3 5.6
2017-Oct-17 18:00N 49°18' W 123°14'2 4.4
2017-Oct-17 17:30N 49°17' W 123°11'1 1.5
2017-Oct-17 17:00N 49°17' W 123°10'1 2.3
2017-Oct-17 16:30N 49°16' W 123°08'0 0.0
2017-Oct-17 16:00N 49°16' W 123°08'0 0.0
2017-Oct-17 15:30N 49°16' W 123°08'0 0.0
2017-Oct-17 15:00N 49°16' W 123°08'0 0.0
2017-Oct-17 14:30N 49°16' W 123°08'0 0.0
2017-Oct-17 14:00N 49°16' W 123°08'0 0.0
2017-Oct-17 13:30N 49°16' W 123°08'0 0.0
2017-Oct-17 13:00N 49°16' W 123°08'0 0.0
2017-Oct-17 12:30N 49°16' W 123°08'0 0.0
2017-Oct-17 12:00N 49°16' W 123°08'0 0.4
2017-Oct-17 11:30N 49°16' W 123°08'1 2.2
2017-Oct-17 11:00N 49°17' W 123°09'2 4.9
2017-Oct-17 10:30N 49°18' W 123°13'1 2.9
2017-Oct-17 10:00N 49°18' W 123°15'3 5.5
2017-Oct-17 09:30N 49°19' W 123°19'3 5.2
2017-Oct-17 09:00N 49°20' W 123°23'3 5.3
2017-Oct-17 08:30N 49°20' W 123°27'3 5.2
2017-Oct-17 08:00N 49°21' W 123°30'3 5.2
2017-Oct-17 07:30N 49°23' W 123°34'3 5.3
2017-Oct-17 07:00N 49°24' W 123°37'2 4.9
2017-Oct-17 06:30N 49°25' W 123°41'2 4.6
2017-Oct-17 06:00N 49°26' W 123°44'2 4.0
2017-Oct-17 05:30N 49°28' W 123°45'0 0.2
2017-Oct-17 05:00N 49°28' W 123°45'0 0.0
2017-Oct-17 04:30N 49°28' W 123°45'1 1.6
2017-Oct-17 04:00N 49°27' W 123°45'2 3.5
2017-Oct-17 03:30N 49°26' W 123°43'2 3.6
2017-Oct-17 03:00N 49°25' W 123°41'2 4.1
2017-Oct-17 02:30N 49°24' W 123°38'2 3.3
2017-Oct-17 02:00N 49°23' W 123°36'2 3.9
2017-Oct-17 01:30N 49°22' W 123°33'2 4.6
2017-Oct-17 01:00N 49°21' W 123°30'3 5.3
2017-Oct-17 00:30N 49°20' W 123°27'3 6.1
2017-Oct-17 00:00N 49°19' W 123°22'3 6.3
2017-Oct-16 23:30N 49°19' W 123°17'3 5.9
2017-Oct-16 23:00N 49°18' W 123°13'3 6.2
2017-Oct-16 22:30N 49°17' W 123°09'1 1.3
2017-Oct-16 22:00N 49°16' W 123°08'1 1.0
2017-Oct-16 21:30N 49°17' W 123°08'2 3.7
2017-Oct-16 21:00N 49°18' W 123°10'2 4.3
2017-Oct-16 20:30N 49°18' W 123°07'2 3.2
2017-Oct-16 20:00N 49°17' W 123°05'2 3.1
2017-Oct-16 19:30N 49°18' W 123°03'2 4.1
2017-Oct-16 19:00N 49°19' W 123°06'1 1.8
2017-Oct-16 18:30N 49°18' W 123°05'1 2.1
2017-Oct-16 18:00N 49°18' W 123°03'1 2.9
2017-Oct-16 17:30N 49°17' W 123°05'0 0.0
2017-Oct-16 17:00N 49°17' W 123°05'0 0.0
2017-Oct-16 16:30N 49°17' W 123°05'0 0.0
2017-Oct-16 16:00N 49°17' W 123°05'0 0.0
2017-Oct-16 15:30N 49°17' W 123°05'0 0.0
2017-Oct-16 15:00N 49°17' W 123°05'0 0.0
2017-Oct-16 14:30N 49°17' W 123°05'0 0.0
2017-Oct-16 13:30N 49°17' W 123°05'0 0.0
2017-Oct-16 13:00N 49°17' W 123°05'1 1.6
2017-Oct-16 12:30N 49°18' W 123°04'2 3.8
2017-Oct-16 12:00N 49°18' W 123°01'2 4.3
2017-Oct-16 11:30N 49°18' W 123°04'3 6.9
2017-Oct-16 11:00N 49°19' W 123°09'2 4.1
2017-Oct-16 10:30N 49°17' W 123°10'0 0.1
2017-Oct-16 10:00N 49°17' W 123°10'0 0.1
2017-Oct-16 09:30N 49°17' W 123°10'0 0.1
2017-Oct-16 09:00N 49°17' W 123°10'0 0.1
2017-Oct-16 08:30N 49°17' W 123°10'0 0.1
2017-Oct-16 08:00N 49°17' W 123°10'0 0.4
2017-Oct-16 07:30N 49°17' W 123°10'4 8.0
2017-Oct-16 07:00N 49°17' W 123°16'3 6.4
2017-Oct-16 06:30N 49°14' W 123°14'4 7.4
2017-Oct-16 06:00N 49°13' W 123°09'1 1.6
2017-Oct-16 05:30N 49°12' W 123°08'2 4.3
2017-Oct-16 05:00N 49°12' W 123°05'3 5.6
2017-Oct-16 04:30N 49°12' W 123°01'2 4.5
2017-Oct-16 04:00N 49°12' W 122°57'2 4.8
2017-Oct-16 03:30N 49°12' W 122°54'2 4.2
2017-Oct-16 03:00N 49°13' W 122°51'3 6.5
2017-Oct-16 02:30N 49°13' W 122°46'3 6.8
2017-Oct-16 02:00N 49°12' W 122°41'3 6.5
2017-Oct-16 01:30N 49°12' W 122°36'5 5.9
2017-Oct-16 00:40N 49°10' W 122°29'3 5.7
2017-Oct-16 00:05N 49°10' W 122°25'2 1.9
2017-Oct-15 23:15N 49°10' W 122°27'4 8.7
2017-Oct-15 22:47N 49°11' W 122°33'2 8.5
2017-Oct-15 22:30N 49°12' W 122°36'4 8.3
2017-Oct-15 22:00N 49°12' W 122°42'5 9.4
2017-Oct-15 21:30N 49°13' W 122°49'4 7.9
2017-Oct-15 21:00N 49°12' W 122°55'2 4.8
2017-Oct-15 20:30N 49°11' W 122°58'7 0.7
2017-Oct-15 11:06N 49°12' W 123°08'0 3.5
2017-Oct-15 11:01N 49°12' W 123°08'3 5.5
2017-Oct-15 10:30N 49°13' W 123°12'4 7.6
2017-Oct-15 10:00N 49°16' W 123°17'3 7.0
2017-Oct-15 09:30N 49°18' W 123°21'4 7.9
2017-Oct-15 09:01N 49°20' W 123°26'4 8.1
2017-Oct-15 08:30N 49°24' W 123°25'4 7.5
2017-Oct-15 08:01N 49°27' W 123°28'4 8.0
2017-Oct-15 07:30N 49°31' W 123°29'0 0.5
2017-Oct-15 07:00N 49°31' W 123°29'1 2.0
2017-Oct-15 06:30N 49°30' W 123°28'3 5.9
2017-Oct-15 06:00N 49°27' W 123°28'3 5.6
2017-Oct-15 05:30N 49°25' W 123°26'3 5.1
2017-Oct-15 05:00N 49°22' W 123°26'3 5.2
2017-Oct-15 04:31N 49°20' W 123°26'3 5.9
2017-Oct-15 04:01N 49°18' W 123°22'3 5.7
2017-Oct-15 03:31N 49°16' W 123°18'3 5.9
2017-Oct-15 03:00N 49°15' W 123°15'3 5.8
2017-Oct-15 02:31N 49°13' W 123°11'1 2.6
2017-Oct-15 02:01N 49°12' W 123°09'2 3.9
2017-Oct-15 01:30N 49°12' W 123°06'1 2.6
2017-Oct-15 01:00N 49°12' W 123°08'0 0.0
2017-Oct-15 00:30N 49°12' W 123°08'1 2.0
2017-Oct-15 00:00N 49°12' W 123°07'4 7.1
2017-Oct-14 23:30N 49°12' W 123°01'3 6.2
2017-Oct-14 22:59N 49°12' W 122°56'3 6.9
2017-Oct-14 22:30N 49°13' W 122°52'3 6.5
2017-Oct-14 22:00N 49°14' W 122°47'3 5.1
2017-Oct-14 21:30N 49°15' W 122°44'1 1.1
2017-Oct-14 21:01N 49°16' W 122°43'3 6.0
2017-Oct-14 20:30N 49°17' W 122°40'0 0.2
2017-Oct-14 20:00N 49°17' W 122°40'0 0.1
2017-Oct-14 19:31N 49°17' W 122°40'2 3.9
2017-Oct-14 19:00N 49°17' W 122°42'3 5.6
2017-Oct-14 18:31N 49°14' W 122°45'3 6.3
2017-Oct-14 18:00N 49°13' W 122°49'3 6.2
2017-Oct-14 17:30N 49°12' W 122°54'3 6.1
2017-Oct-14 17:01N 49°11' W 122°58'3 6.1
2017-Oct-14 16:31N 49°12' W 123°02'1 2.6
2017-Oct-14 16:00N 49°12' W 123°04'0 0.1
2017-Oct-14 15:30N 49°12' W 123°04'0 0.0
2017-Oct-14 15:01N 49°12' W 123°04'0 0.0
2017-Oct-14 14:31N 49°12' W 123°04'0 0.0
2017-Oct-14 14:00N 49°12' W 123°04'0 0.0
2017-Oct-14 13:31N 49°12' W 123°04'0 0.0
2017-Oct-14 13:00N 49°12' W 123°04'0 0.0
2017-Oct-14 12:30N 49°12' W 123°04'0 0.0
2017-Oct-14 12:00N 49°12' W 123°04'0 0.0
2017-Oct-14 11:30N 49°12' W 123°04'0 0.0
2017-Oct-14 11:00N 49°12' W 123°04'0 0.0
2017-Oct-14 10:30N 49°12' W 123°04'0 0.0
2017-Oct-14 10:01N 49°12' W 123°04'0 0.0
2017-Oct-14 09:30N 49°12' W 123°04'0 0.0
2017-Oct-14 09:00N 49°12' W 123°04'1 1.2
2017-Oct-14 08:31N 49°12' W 123°03'4 7.4
2017-Oct-14 08:01N 49°11' W 122°58'2 3.5
2017-Oct-14 07:30N 49°10' W 122°56'4 7.9
2017-Oct-14 07:01N 49°09' W 123°01'2 3.6
2017-Oct-14 06:30N 49°08' W 123°03'1 1.3
2017-Oct-14 06:01N 49°07' W 123°04'0 0.5
2017-Oct-14 05:31N 49°08' W 123°04'1 1.8
2017-Oct-14 05:01N 49°08' W 123°03'3 6.2
2017-Oct-14 04:30N 49°09' W 122°59'4 7.2
2017-Oct-14 04:01N 49°12' W 122°55'1 2.4
2017-Oct-14 03:30N 49°13' W 122°53'0 0.0
2017-Oct-14 03:00N 49°13' W 122°53'0 0.0
2017-Oct-14 02:31N 49°13' W 122°53'0 0.0
2017-Oct-14 02:00N 49°13' W 122°53'3 4.3
2017-Oct-14 01:25N 49°12' W 122°57'2 5.1
2017-Oct-14 01:00N 49°11' W 122°60'3 6.4
2017-Oct-14 00:30N 49°12' W 123°05'2 4.5
2017-Oct-14 00:00N 49°12' W 123°08'0 0.0
2017-Oct-13 23:30N 49°12' W 123°08'0 0.0
2017-Oct-13 23:01N 49°12' W 123°08'0 0.0
2017-Oct-13 22:31N 49°12' W 123°08'2 3.3
2017-Oct-13 22:01N 49°12' W 123°06'0 0.3
2017-Oct-13 21:31N 49°12' W 123°05'0 0.1
2017-Oct-13 21:00N 49°12' W 123°05'0 0.1
2017-Oct-13 20:30N 49°12' W 123°05'0 0.0
2017-Oct-13 20:00N 49°12' W 123°05'0 0.0
2017-Oct-13 19:30N 49°12' W 123°05'0 0.0
2017-Oct-13 19:01N 49°12' W 123°05'0 0.0
2017-Oct-13 18:31N 49°12' W 123°05'0 0.0
2017-Oct-13 18:00N 49°12' W 123°05'0 0.3
2017-Oct-13 17:31N 49°12' W 123°05'0 0.7
2017-Oct-13 17:00N 49°12' W 123°05'2 3.5
2017-Oct-13 16:30N 49°12' W 123°07'2 4.7
2017-Oct-13 16:01N 49°13' W 123°11'3 5.5
2017-Oct-13 15:30N 49°14' W 123°14'2 4.8
2017-Oct-13 15:00N 49°16' W 123°17'2 3.3
2017-Oct-13 14:31N 49°14' W 123°18'2 3.7
2017-Oct-13 14:00N 49°12' W 123°18'2 3.4
2017-Oct-13 13:30N 49°11' W 123°19'2 3.5
2017-Oct-13 13:00N 49°09' W 123°19'2 3.5
2017-Oct-13 12:30N 49°07' W 123°19'2 4.2
2017-Oct-13 12:01N 49°07' W 123°16'4 8.1
2017-Oct-13 11:31N 49°07' W 123°10'4 8.4
2017-Oct-13 11:01N 49°08' W 123°04'4 8.1
2017-Oct-13 10:31N 49°09' W 122°58'4 7.1
2017-Oct-13 10:00N 49°12' W 122°54'2 4.7
2017-Oct-13 09:31N 49°13' W 122°51'3 6.2
2017-Oct-13 09:00N 49°14' W 122°46'3 5.2
2017-Oct-13 08:30N 49°15' W 122°43'2 4.9
2017-Oct-13 08:00N 49°17' W 122°41'1 1.9
2017-Oct-13 07:30N 49°17' W 122°40'2 3.6
2017-Oct-13 07:00N 49°17' W 122°42'4 7.0
2017-Oct-13 06:30N 49°14' W 122°46'4 7.4
2017-Oct-13 06:00N 49°13' W 122°51'4 7.1
2017-Oct-13 05:31N 49°11' W 122°55'3 6.4
2017-Oct-13 05:01N 49°09' W 122°59'3 6.3
2017-Oct-13 04:30N 49°08' W 123°04'3 6.3
2017-Oct-13 04:00N 49°06' W 123°08'3 6.0
2017-Oct-13 03:31N 49°07' W 123°12'3 5.9
2017-Oct-13 03:00N 49°07' W 123°17'2 3.6
2017-Oct-13 02:30N 49°08' W 123°19'4 7.2
2017-Oct-13 02:01N 49°11' W 123°18'3 6.6
2017-Oct-13 01:31N 49°15' W 123°18'3 7.0
2017-Oct-13 01:01N 49°18' W 123°16'4 7.7
2017-Oct-13 00:30N 49°19' W 123°10'2 4.2
2017-Oct-13 00:01N 49°19' W 123°07'0 0.4
2017-Oct-12 23:30N 49°18' W 123°07'0 0.8
2017-Oct-12 23:01N 49°18' W 123°06'1 2.8
2017-Oct-12 22:30N 49°17' W 123°05'0 0.0
2017-Oct-12 22:01N 49°17' W 123°05'0 0.0
2017-Oct-12 21:30N 49°17' W 123°05'0 0.0
2017-Oct-12 21:01N 49°17' W 123°05'  
Track history (hours):
 
Tides and Currents Weather Stations Pressure Air Temp Water Temp Dewpoint Dewpoint Depression Visibility Wind Speed Wind Dir Waves Ship Positions

Ocean Gordon

Last reported at 2017-Oct-22 21:00 UTC. Time now 2017-Oct-22 21:15 UTC.
Position N 49°12' W 123°08'.

Length 15 m; draft 2.3 m.

Type: Tug. MMSI: 316022038.

Date/timePositionNaut miles runAvg speedWind from/ knotsBaromVisibWave heightAir tempDewpointWater temp
2017-Oct-22 21:00N 49°12' W 123°08'0 0.0
2017-Oct-22 20:30N 49°12' W 123°08'0 0.0
2017-Oct-22 20:00N 49°12' W 123°08'2 3.8
2017-Oct-22 19:30N 49°12' W 123°05'5 8.6
2017-Oct-22 18:57N 49°11' W 122°58'2 5.4
2017-Oct-22 18:30N 49°11' W 122°55'0 0.2
2017-Oct-22 18:00N 49°12' W 122°55'2 5.0
2017-Oct-22 17:30N 49°09' W 122°57'3 6.3
2017-Oct-22 17:00N 49°09' W 123°01'1 1.2
2017-Oct-22 16:30N 49°09' W 123°02'0 0.3
2017-Oct-22 16:00N 49°09' W 123°02'2 3.1
2017-Oct-22 15:30N 49°09' W 123°00'0 0.0
2017-Oct-22 15:00N 49°09' W 123°00'3 5.6
2017-Oct-22 14:30N 49°08' W 123°04'4 7.9
2017-Oct-22 14:00N 49°07' W 123°10'3 6.2
2017-Oct-22 13:30N 49°08' W 123°14'3 6.2
2017-Oct-22 13:00N 49°06' W 123°18'3 6.1
2017-Oct-22 12:30N 49°03' W 123°19'5 9.2
2017-Oct-22 12:00N 49°00' W 123°14'4 8.6
2017-Oct-22 11:30N 48°57' W 123°09'4 8.4
2017-Oct-22 11:00N 48°54' W 123°05'4 8.0
2017-Oct-22 10:30N 48°51' W 123°01'4 8.0
2017-Oct-22 10:00N 48°47' W 123°02'4 8.6
2017-Oct-22 09:30N 48°44' W 123°07'4 7.7
2017-Oct-22 09:00N 48°43' W 123°12'3 5.6
2017-Oct-22 08:29N 48°40' W 123°15'3 6.3
2017-Oct-22 08:00N 48°37' W 123°14'3 6.9
2017-Oct-22 07:30N 48°34' W 123°14'3 6.1
2017-Oct-22 07:00N 48°31' W 123°14'4 7.1
2017-Oct-22 06:30N 48°27' W 123°15'3 5.5
2017-Oct-22 06:00N 48°25' W 123°17'3 5.2
2017-Oct-22 05:30N 48°23' W 123°20'3 6.1
2017-Oct-22 05:00N 48°24' W 123°24'1 1.6
2017-Oct-22 04:30N 48°25' W 123°23'0 0.0
2017-Oct-22 04:00N 48°25' W 123°23'0 0.0
2017-Oct-22 03:30N 48°25' W 123°23'0 0.1
2017-Oct-22 03:00N 48°25' W 123°23'1 1.5
2017-Oct-22 02:30N 48°26' W 123°23'0 0.3
2017-Oct-22 02:00N 48°26' W 123°22'1 2.2
2017-Oct-22 01:30N 48°25' W 123°24'4 8.4
2017-Oct-22 01:00N 48°24' W 123°18'4 8.2
2017-Oct-22 00:30N 48°28' W 123°16'4 7.2
2017-Oct-22 00:00N 48°31' W 123°18'3 6.7
2017-Oct-21 23:30N 48°34' W 123°19'4 7.9
2017-Oct-21 22:59N 48°38' W 123°21'4 8.6
2017-Oct-21 22:30N 48°42' W 123°21'5 9.3
2017-Oct-21 22:00N 48°47' W 123°21'5 9.4
2017-Oct-21 21:29N 48°51' W 123°21'3 5.6
2017-Oct-21 21:00N 48°54' W 123°18'5 9.1
2017-Oct-21 20:30N 48°58' W 123°19'4 8.8
2017-Oct-21 20:00N 49°02' W 123°19'5 9.1
2017-Oct-21 19:29N 49°07' W 123°19'4 9.1
2017-Oct-21 19:00N 49°11' W 123°18'4 7.9
2017-Oct-21 18:30N 49°15' W 123°16'510.6
2017-Oct-21 18:00N 49°12' W 123°09'1 1.5
2017-Oct-21 17:30N 49°12' W 123°08'0 0.0
2017-Oct-21 16:59N 49°12' W 123°08'0 0.0
2017-Oct-21 16:30N 49°12' W 123°08'0 0.0
2017-Oct-21 16:00N 49°12' W 123°08'0 0.0
2017-Oct-21 15:30N 49°12' W 123°08'0 0.3
2017-Oct-21 15:00N 49°12' W 123°08'0 0.0
2017-Oct-21 14:30N 49°12' W 123°08'0 0.0
2017-Oct-21 13:30N 49°12' W 123°08'0 0.0
2017-Oct-21 13:00N 49°12' W 123°08'0 0.0
2017-Oct-21 12:30N 49°12' W 123°08'0 0.0
2017-Oct-21 12:00N 49°12' W 123°08'0 0.0
2017-Oct-21 11:30N 49°12' W 123°08'0 0.0
2017-Oct-21 11:00N 49°12' W 123°08'0 0.0
2017-Oct-21 10:30N 49°12' W 123°08'0 0.0
2017-Oct-21 10:00N 49°12' W 123°08'0 0.0
2017-Oct-21 09:30N 49°12' W 123°08'0 0.0
2017-Oct-21 09:00N 49°12' W 123°08'0 0.0
2017-Oct-21 08:30N 49°12' W 123°08'0 0.0
2017-Oct-21 08:00N 49°12' W 123°08'0 0.0
2017-Oct-21 07:30N 49°12' W 123°08'0 0.0
2017-Oct-21 07:00N 49°12' W 123°08'0 0.0
2017-Oct-21 06:30N 49°12' W 123°08'0 0.0
2017-Oct-21 06:00N 49°12' W 123°08'0 0.0
2017-Oct-21 05:30N 49°12' W 123°08'0 0.0
2017-Oct-21 05:00N 49°12' W 123°08'0 0.0
2017-Oct-21 04:30N 49°12' W 123°08'0 0.0
2017-Oct-21 04:00N 49°12' W 123°08'2 4.0
2017-Oct-21 03:30N 49°12' W 123°05'5 7.8
2017-Oct-21 02:56N 49°11' W 122°58'3 7.7
2017-Oct-21 02:30N 49°12' W 122°54'1 1.8
2017-Oct-21 02:00N 49°13' W 122°53'0 0.2
2017-Oct-21 01:30N 49°13' W 122°53'1 1.3
2017-Oct-21 01:00N 49°13' W 122°52'1 2.9
2017-Oct-21 00:30N 49°13' W 122°50'0 0.1
2017-Oct-21 00:00N 49°13' W 122°50'0 0.0
2017-Oct-20 23:30N 49°13' W 122°50'0 0.0
2017-Oct-20 23:00N 49°13' W 122°50'3 5.2
2017-Oct-20 22:30N 49°12' W 122°54'4 7.3
2017-Oct-20 22:00N 49°09' W 122°57'4 7.6
2017-Oct-20 21:30N 49°08' W 123°03'1 1.6
2017-Oct-20 21:00N 49°08' W 123°03'0 0.8
2017-Oct-20 20:30N 49°08' W 123°04'3 6.3
2017-Oct-20 20:00N 49°09' W 122°59'3 6.5
2017-Oct-20 19:30N 49°11' W 122°55'3 5.3
2017-Oct-20 19:00N 49°13' W 122°52'3 4.9
2017-Oct-20 18:30N 49°13' W 122°49'2 4.4
2017-Oct-20 18:00N 49°14' W 122°46'1 2.2
2017-Oct-20 17:30N 49°15' W 122°44'1 1.7
2017-Oct-20 17:00N 49°15' W 122°43'1 2.7
2017-Oct-20 16:30N 49°16' W 122°42'2 3.1
2017-Oct-20 16:00N 49°17' W 122°41'1 1.6
2017-Oct-20 15:30N 49°18' W 122°40'1 1.5
2017-Oct-20 14:55N 49°19' W 122°40'0 0.0
2017-Oct-20 14:24N 49°19' W 122°40'0 0.0
2017-Oct-20 13:29N 49°19' W 122°40'0 0.0
2017-Oct-20 13:00N 49°19' W 122°40'0 0.0
2017-Oct-20 12:30N 49°19' W 122°40'0 0.0
2017-Oct-20 12:00N 49°19' W 122°40'0 0.0
2017-Oct-20 11:30N 49°19' W 122°40'0 0.0
2017-Oct-20 10:59N 49°19' W 122°40'0 0.0
2017-Oct-20 10:30N 49°19' W 122°40'0 0.0
2017-Oct-20 10:00N 49°19' W 122°40'0 0.0
2017-Oct-20 09:29N 49°19' W 122°40'0 0.0
2017-Oct-20 08:55N 49°19' W 122°40'0 0.0
2017-Oct-20 08:30N 49°19' W 122°40'2 3.5
2017-Oct-20 08:00N 49°17' W 122°40'0 0.2
2017-Oct-20 07:30N 49°17' W 122°40'3 6.9
2017-Oct-20 07:00N 49°15' W 122°44'2 4.8
2017-Oct-20 06:30N 49°13' W 122°44'3 5.3
2017-Oct-20 06:00N 49°12' W 122°40'0 0.4
2017-Oct-20 05:30N 49°12' W 122°39'0 0.1
2017-Oct-20 05:00N 49°12' W 122°40'1 2.3
2017-Oct-20 04:30N 49°12' W 122°41'4 7.6
2017-Oct-20 04:00N 49°13' W 122°47'2 3.6
2017-Oct-20 03:27N 49°13' W 122°50'0 0.2
2017-Oct-20 03:00N 49°13' W 122°50'0 0.0
2017-Oct-20 02:30N 49°13' W 122°50'1 2.3
2017-Oct-20 02:00N 49°13' W 122°48'3 6.5
2017-Oct-20 01:30N 49°12' W 122°43'2 3.9
2017-Oct-20 01:00N 49°11' W 122°41'2 4.2
2017-Oct-20 00:30N 49°12' W 122°44'4 7.9
2017-Oct-20 00:00N 49°13' W 122°49'0 0.6
2017-Oct-19 23:30N 49°13' W 122°50'0 0.3
2017-Oct-19 23:00N 49°13' W 122°50'1 2.9
2017-Oct-19 22:30N 49°13' W 122°52'2 3.2
2017-Oct-19 22:00N 49°12' W 122°54'2 4.9
2017-Oct-19 21:30N 49°10' W 122°56'2 3.7
2017-Oct-19 21:00N 49°10' W 122°59'0 0.0
2017-Oct-19 20:30N 49°10' W 122°59'0 0.0
2017-Oct-19 20:00N 49°10' W 122°59'2 4.5
2017-Oct-19 19:30N 49°11' W 122°55'4 7.8
2017-Oct-19 19:00N 49°13' W 122°51'1 1.3
2017-Oct-19 18:30N 49°13' W 122°50'0 0.8
2017-Oct-19 18:00N 49°13' W 122°50'3 5.7
2017-Oct-19 17:30N 49°14' W 122°46'2 3.5
2017-Oct-19 17:00N 49°15' W 122°44'0 0.2
2017-Oct-19 16:24N 49°15' W 122°44'0 0.0
2017-Oct-19 15:50N 49°15' W 122°44'0 0.0
2017-Oct-19 15:28N 49°15' W 122°44'0 0.0
2017-Oct-19 14:58N 49°15' W 122°44'0 0.2
2017-Oct-19 14:30N 49°15' W 122°44'3 6.4
2017-Oct-19 14:00N 49°17' W 122°41'2 3.7
2017-Oct-19 13:30N 49°19' W 122°40'0 0.0
2017-Oct-19 13:00N 49°19' W 122°40'0 0.1
2017-Oct-19 12:30N 49°19' W 122°40'2 3.4
2017-Oct-19 12:00N 49°17' W 122°40'3 5.7
2017-Oct-19 11:30N 49°15' W 122°43'2 4.4
2017-Oct-19 11:00N 49°14' W 122°46'1 2.6
2017-Oct-19 10:30N 49°13' W 122°48'3 6.4
2017-Oct-19 10:00N 49°13' W 122°52'3 6.9
2017-Oct-19 09:30N 49°10' W 122°56'2 4.1
2017-Oct-19 09:00N 49°10' W 122°59'1 2.3
2017-Oct-19 08:30N 49°09' W 123°00'2 3.6
2017-Oct-19 08:00N 49°09' W 123°03'3 6.3
2017-Oct-19 07:30N 49°07' W 123°07'3 6.0
2017-Oct-19 07:00N 49°07' W 123°11'2 4.8
2017-Oct-19 06:30N 49°08' W 123°15'3 5.2
2017-Oct-19 06:00N 49°06' W 123°18'4 7.1
2017-Oct-19 05:30N 49°03' W 123°19'4 9.0
2017-Oct-19 05:00N 48°58' W 123°18'4 8.7
2017-Oct-19 04:30N 48°54' W 123°18'3 5.7
2017-Oct-19 04:00N 48°52' W 123°20'4 7.4
2017-Oct-19 03:30N 48°48' W 123°21'4 8.7
2017-Oct-19 02:59N 48°43' W 123°21'5 8.1
2017-Oct-19 02:20N 48°38' W 123°21'2 7.5
2017-Oct-19 02:00N 48°36' W 123°19'4 7.7
2017-Oct-19 01:30N 48°32' W 123°20'0 0.6
2017-Oct-19 01:00N 48°32' W 123°20'2 4.7
2017-Oct-19 00:30N 48°34' W 123°21'2 4.2
2017-Oct-18 23:58N 48°36' W 123°23'1 2.4
2017-Oct-18 23:27N 48°37' W 123°23'4 8.7
2017-Oct-18 23:00N 48°41' W 123°21'4 8.4
2017-Oct-18 22:30N 48°45' W 123°21'4 6.1
2017-Oct-18 21:54N 48°43' W 123°26'4 8.1
2017-Oct-18 21:25N 48°40' W 123°30'4 8.9
2017-Oct-18 20:59N 48°36' W 123°31'1 1.3
2017-Oct-18 20:21N 48°36' W 123°31'2 4.7
2017-Oct-18 19:59N 48°37' W 123°30'8 5.9
2017-Oct-18 18:40N 48°44' W 123°25'1 6.4
2017-Oct-18 18:27N 48°45' W 123°23'3 6.1
2017-Oct-18 17:59N 48°48' W 123°21'3 6.8
2017-Oct-18 17:29N 48°51' W 123°21'2 5.1
2017-Oct-18 17:00N 48°52' W 123°18'2 3.9
2017-Oct-18 16:30N 48°54' W 123°18'4 7.3
2017-Oct-18 16:00N 48°58' W 123°18'4 7.1
2017-Oct-18 15:30N 49°02' W 123°19'4 7.0
2017-Oct-18 15:00N 49°05' W 123°20'6 6.0
2017-Oct-18 14:00N 49°07' W 123°11'4 7.1
2017-Oct-18 13:30N 49°07' W 123°06'3 6.1
2017-Oct-18 13:00N 49°09' W 123°02'1 2.9
2017-Oct-18 12:30N 49°08' W 123°03'0 0.2
2017-Oct-18 12:00N 49°08' W 123°03'1 1.0
2017-Oct-18 11:30N 49°08' W 123°04'1 2.4
2017-Oct-18 11:00N 49°07' W 123°05'2 3.7
2017-Oct-18 10:30N 49°06' W 123°08'2 3.7
2017-Oct-18 10:00N 49°07' W 123°11'2 4.3
2017-Oct-18 09:30N 49°08' W 123°14'2 3.9
2017-Oct-18 09:00N 49°07' W 123°17'2 3.5
2017-Oct-18 08:29N 49°06' W 123°19'1 2.4
2017-Oct-18 08:00N 49°07' W 123°21'1 2.7
2017-Oct-18 07:30N 49°08' W 123°22'2 3.1
2017-Oct-18 07:00N 49°09' W 123°24'2 3.2
2017-Oct-18 06:30N 49°10' W 123°25'2 3.3
2017-Oct-18 06:00N 49°11' W 123°26'2 3.4
2017-Oct-18 05:30N 49°13' W 123°28'2 3.5
2017-Oct-18 05:00N 49°14' W 123°30'2 3.8
2017-Oct-18 04:30N 49°15' W 123°32'2 4.3
2017-Oct-18 04:00N 49°17' W 123°34'2 4.7
2017-Oct-18 03:30N 49°19' W 123°37'3 5.2
2017-Oct-18 03:00N 49°21' W 123°39'3 5.2
2017-Oct-18 02:30N 49°23' W 123°41'3 5.4
2017-Oct-18 02:00N 49°25' W 123°44'3 5.1
2017-Oct-18 01:30N 49°28' W 123°45'1 1.1
2017-Oct-18 01:00N 49°28' W 123°45'0 0.0
2017-Oct-18 00:30N 49°28' W 123°45'0 0.0
2017-Oct-18 00:00N 49°28' W 123°45'0 0.0
2017-Oct-17 23:30N 49°28' W 123°45'0 0.1
2017-Oct-17 23:00N 49°28' W 123°45'1 2.6
2017-Oct-17 22:30N 49°27' W 123°45'1 2.9
2017-Oct-17 22:00N 49°26' W 123°43'3 6.3
2017-Oct-17 21:30N 49°24' W 123°39'3 6.8
2017-Oct-17 21:00N 49°23' W 123°35'3 5.0
2017-Oct-17 20:30N 49°21' W 123°31'2 3.8
2017-Oct-17 20:00N 49°20' W 123°29'2 3.9
2017-Oct-17 19:30N 49°20' W 123°26'2 4.5
2017-Oct-17 19:00N 49°19' W 123°23'3 5.7
2017-Oct-17 18:30N 49°19' W 123°18'3 5.6
2017-Oct-17 18:00N 49°18' W 123°14'2 4.4
2017-Oct-17 17:30N 49°17' W 123°11'1 1.5
2017-Oct-17 17:00N 49°17' W 123°10'1 2.3
2017-Oct-17 16:30N 49°16' W 123°08'0 0.0
2017-Oct-17 16:00N 49°16' W 123°08'0 0.0
2017-Oct-17 15:30N 49°16' W 123°08'0 0.0
2017-Oct-17 15:00N 49°16' W 123°08'0 0.0
2017-Oct-17 14:30N 49°16' W 123°08'0 0.0
2017-Oct-17 14:00N 49°16' W 123°08'0 0.0
2017-Oct-17 13:30N 49°16' W 123°08'0 0.0
2017-Oct-17 13:00N 49°16' W 123°08'0 0.0
2017-Oct-17 12:30N 49°16' W 123°08'0 0.0
2017-Oct-17 12:00N 49°16' W 123°08'0 0.4
2017-Oct-17 11:30N 49°16' W 123°08'1 2.2
2017-Oct-17 11:00N 49°17' W 123°09'2 4.9
2017-Oct-17 10:30N 49°18' W 123°13'1 2.9
2017-Oct-17 10:00N 49°18' W 123°15'3 5.5
2017-Oct-17 09:30N 49°19' W 123°19'3 5.2
2017-Oct-17 09:00N 49°20' W 123°23'3 5.3
2017-Oct-17 08:30N 49°20' W 123°27'3 5.2
2017-Oct-17 08:00N 49°21' W 123°30'3 5.2
2017-Oct-17 07:30N 49°23' W 123°34'3 5.3
2017-Oct-17 07:00N 49°24' W 123°37'2 4.9
2017-Oct-17 06:30N 49°25' W 123°41'2 4.6
2017-Oct-17 06:00N 49°26' W 123°44'2 4.0
2017-Oct-17 05:30N 49°28' W 123°45'0 0.2
2017-Oct-17 05:00N 49°28' W 123°45'0 0.0
2017-Oct-17 04:30N 49°28' W 123°45'1 1.6
2017-Oct-17 04:00N 49°27' W 123°45'2 3.5
2017-Oct-17 03:30N 49°26' W 123°43'2 3.6
2017-Oct-17 03:00N 49°25' W 123°41'2 4.1
2017-Oct-17 02:30N 49°24' W 123°38'2 3.3
2017-Oct-17 02:00N 49°23' W 123°36'2 3.9
2017-Oct-17 01:30N 49°22' W 123°33'2 4.6
2017-Oct-17 01:00N 49°21' W 123°30'3 5.3
2017-Oct-17 00:30N 49°20' W 123°27'3 6.1
2017-Oct-17 00:00N 49°19' W 123°22'3 6.3
2017-Oct-16 23:30N 49°19' W 123°17'3 5.9
2017-Oct-16 23:00N 49°18' W 123°13'3 6.2
2017-Oct-16 22:30N 49°17' W 123°09'1 1.3
2017-Oct-16 22:00N 49°16' W 123°08'1 1.0
2017-Oct-16 21:30N 49°17' W 123°08'2 3.7
2017-Oct-16 21:00N 49°18' W 123°10'2 4.3
2017-Oct-16 20:30N 49°18' W 123°07'2 3.2
2017-Oct-16 20:00N 49°17' W 123°05'2 3.1
2017-Oct-16 19:30N 49°18' W 123°03'2 4.1
2017-Oct-16 19:00N 49°19' W 123°06'1 1.8
2017-Oct-16 18:30N 49°18' W 123°05'1 2.1
2017-Oct-16 18:00N 49°18' W 123°03'1 2.9
2017-Oct-16 17:30N 49°17' W 123°05'0 0.0
2017-Oct-16 17:00N 49°17' W 123°05'0 0.0
2017-Oct-16 16:30N 49°17' W 123°05'0 0.0
2017-Oct-16 16:00N 49°17' W 123°05'0 0.0
2017-Oct-16 15:30N 49°17' W 123°05'0 0.0
2017-Oct-16 15:00N 49°17' W 123°05'0 0.0
2017-Oct-16 14:30N 49°17' W 123°05'0 0.0
2017-Oct-16 13:30N 49°17' W 123°05'0 0.0
2017-Oct-16 13:00N 49°17' W 123°05'1 1.6
2017-Oct-16 12:30N 49°18' W 123°04'2 3.8
2017-Oct-16 12:00N 49°18' W 123°01'2 4.3
2017-Oct-16 11:30N 49°18' W 123°04'3 6.9
2017-Oct-16 11:00N 49°19' W 123°09'2 4.1
2017-Oct-16 10:30N 49°17' W 123°10'0 0.1
2017-Oct-16 10:00N 49°17' W 123°10'0 0.1
2017-Oct-16 09:30N 49°17' W 123°10'0 0.1
2017-Oct-16 09:00N 49°17' W 123°10'0 0.1
2017-Oct-16 08:30N 49°17' W 123°10'0 0.1
2017-Oct-16 08:00N 49°17' W 123°10'0 0.4
2017-Oct-16 07:30N 49°17' W 123°10'4 8.0
2017-Oct-16 07:00N 49°17' W 123°16'3 6.4
2017-Oct-16 06:30N 49°14' W 123°14'4 7.4
2017-Oct-16 06:00N 49°13' W 123°09'1 1.6
2017-Oct-16 05:30N 49°12' W 123°08'2 4.3
2017-Oct-16 05:00N 49°12' W 123°05'3 5.6
2017-Oct-16 04:30N 49°12' W 123°01'2 4.5
2017-Oct-16 04:00N 49°12' W 122°57'2 4.8
2017-Oct-16 03:30N 49°12' W 122°54'2 4.2
2017-Oct-16 03:00N 49°13' W 122°51'3 6.5
2017-Oct-16 02:30N 49°13' W 122°46'3 6.8
2017-Oct-16 02:00N 49°12' W 122°41'3 6.5
2017-Oct-16 01:30N 49°12' W 122°36'5 5.9
2017-Oct-16 00:40N 49°10' W 122°29'3 5.7
2017-Oct-16 00:05N 49°10' W 122°25'2 1.9
2017-Oct-15 23:15N 49°10' W 122°27'4 8.7
2017-Oct-15 22:47N 49°11' W 122°33'2 8.5
2017-Oct-15 22:30N 49°12' W 122°36'4 8.3
2017-Oct-15 22:00N 49°12' W 122°42'5 9.4
2017-Oct-15 21:30N 49°13' W 122°49'4 7.9
2017-Oct-15 21:00N 49°12' W 122°55'2 4.8
2017-Oct-15 20:30N 49°11' W 122°58'7 0.7
2017-Oct-15 11:06N 49°12' W 123°08'0 3.5
2017-Oct-15 11:01N 49°12' W 123°08'3 5.5
2017-Oct-15 10:30N 49°13' W 123°12'4 7.6
2017-Oct-15 10:00N 49°16' W 123°17'3 7.0
2017-Oct-15 09:30N 49°18' W 123°21'4 7.9
2017-Oct-15 09:01N 49°20' W 123°26'4 8.1
2017-Oct-15 08:30N 49°24' W 123°25'4 7.5
2017-Oct-15 08:01N 49°27' W 123°28'4 8.0
2017-Oct-15 07:30N 49°31' W 123°29'0 0.5
2017-Oct-15 07:00N 49°31' W 123°29'1 2.0
2017-Oct-15 06:30N 49°30' W 123°28'3 5.9
2017-Oct-15 06:00N 49°27' W 123°28'3 5.6
2017-Oct-15 05:30N 49°25' W 123°26'3 5.1
2017-Oct-15 05:00N 49°22' W 123°26'3 5.2
2017-Oct-15 04:31N 49°20' W 123°26'3 5.9
2017-Oct-15 04:01N 49°18' W 123°22'3 5.7
2017-Oct-15 03:31N 49°16' W 123°18'3 5.9
2017-Oct-15 03:00N 49°15' W 123°15'3 5.8
2017-Oct-15 02:31N 49°13' W 123°11'1 2.6
2017-Oct-15 02:01N 49°12' W 123°09'2 3.9
2017-Oct-15 01:30N 49°12' W 123°06'1 2.6
2017-Oct-15 01:00N 49°12' W 123°08'0 0.0
2017-Oct-15 00:30N 49°12' W 123°08'1 2.0
2017-Oct-15 00:00N 49°12' W 123°07'4 7.1
2017-Oct-14 23:30N 49°12' W 123°01'3 6.2
2017-Oct-14 22:59N 49°12' W 122°56'3 6.9
2017-Oct-14 22:30N 49°13' W 122°52'3 6.5
2017-Oct-14 22:00N 49°14' W 122°47'3 5.1
2017-Oct-14 21:30N 49°15' W 122°44'1 1.1
2017-Oct-14 21:01N 49°16' W 122°43'3 6.0
2017-Oct-14 20:30N 49°17' W 122°40'0 0.2
2017-Oct-14 20:00N 49°17' W 122°40'0 0.1
2017-Oct-14 19:31N 49°17' W 122°40'2 3.9
2017-Oct-14 19:00N 49°17' W 122°42'3 5.6
2017-Oct-14 18:31N 49°14' W 122°45'3 6.3
2017-Oct-14 18:00N 49°13' W 122°49'3 6.2
2017-Oct-14 17:30N 49°12' W 122°54'3 6.1
2017-Oct-14 17:01N 49°11' W 122°58'3 6.1
2017-Oct-14 16:31N 49°12' W 123°02'1 2.6
2017-Oct-14 16:00N 49°12' W 123°04'0 0.1
2017-Oct-14 15:30N 49°12' W 123°04'0 0.0
2017-Oct-14 15:01N 49°12' W 123°04'0 0.0
2017-Oct-14 14:31N 49°12' W 123°04'0 0.0
2017-Oct-14 14:00N 49°12' W 123°04'0 0.0
2017-Oct-14 13:31N 49°12' W 123°04'0 0.0
2017-Oct-14 13:00N 49°12' W 123°04'0 0.0
2017-Oct-14 12:30N 49°12' W 123°04'0 0.0
2017-Oct-14 12:00N 49°12' W 123°04'0 0.0
2017-Oct-14 11:30N 49°12' W 123°04'0 0.0
2017-Oct-14 11:00N 49°12' W 123°04'0 0.0
2017-Oct-14 10:30N 49°12' W 123°04'0 0.0
2017-Oct-14 10:01N 49°12' W 123°04'0 0.0
2017-Oct-14 09:30N 49°12' W 123°04'0 0.0
2017-Oct-14 09:00N 49°12' W 123°04'1 1.2
2017-Oct-14 08:31N 49°12' W 123°03'4 7.4
2017-Oct-14 08:01N 49°11' W 122°58'2 3.5
2017-Oct-14 07:30N 49°10' W 122°56'4 7.9
2017-Oct-14 07:01N 49°09' W 123°01'2 3.6
2017-Oct-14 06:30N 49°08' W 123°03'1 1.3
2017-Oct-14 06:01N 49°07' W 123°04'0 0.5
2017-Oct-14 05:31N 49°08' W 123°04'1 1.8
2017-Oct-14 05:01N 49°08' W 123°03'3 6.2
2017-Oct-14 04:30N 49°09' W 122°59'4 7.2
2017-Oct-14 04:01N 49°12' W 122°55'1 2.4
2017-Oct-14 03:30N 49°13' W 122°53'0 0.0
2017-Oct-14 03:00N 49°13' W 122°53'0 0.0
2017-Oct-14 02:31N 49°13' W 122°53'0 0.0
2017-Oct-14 02:00N 49°13' W 122°53'3 4.3
2017-Oct-14 01:25N 49°12' W 122°57'2 5.1
2017-Oct-14 01:00N 49°11' W 122°60'3 6.4
2017-Oct-14 00:30N 49°12' W 123°05'2 4.5
2017-Oct-14 00:00N 49°12' W 123°08'0 0.0
2017-Oct-13 23:30N 49°12' W 123°08'0 0.0
2017-Oct-13 23:01N 49°12' W 123°08'0 0.0
2017-Oct-13 22:31N 49°12' W 123°08'2 3.3
2017-Oct-13 22:01N 49°12' W 123°06'0 0.3
2017-Oct-13 21:31N 49°12' W 123°05'0 0.1
2017-Oct-13 21:00N 49°12' W 123°05'0 0.1
2017-Oct-13 20:30N 49°12' W 123°05'0 0.0
2017-Oct-13 20:00N 49°12' W 123°05'0 0.0
2017-Oct-13 19:30N 49°12' W 123°05'0 0.0
2017-Oct-13 19:01N 49°12' W 123°05'0 0.0
2017-Oct-13 18:31N 49°12' W 123°05'0 0.0
2017-Oct-13 18:00N 49°12' W 123°05'0 0.3
2017-Oct-13 17:31N 49°12' W 123°05'0 0.7
2017-Oct-13 17:00N 49°12' W 123°05'2 3.5
2017-Oct-13 16:30N 49°12' W 123°07'2 4.7
2017-Oct-13 16:01N 49°13' W 123°11'3 5.5
2017-Oct-13 15:30N 49°14' W 123°14'2 4.8
2017-Oct-13 15:00N 49°16' W 123°17'2 3.3
2017-Oct-13 14:31N 49°14' W 123°18'2 3.7
2017-Oct-13 14:00N 49°12' W 123°18'2 3.4
2017-Oct-13 13:30N 49°11' W 123°19'2 3.5
2017-Oct-13 13:00N 49°09' W 123°19'2 3.5
2017-Oct-13 12:30N 49°07' W 123°19'2 4.2
2017-Oct-13 12:01N 49°07' W 123°16'4 8.1
2017-Oct-13 11:31N 49°07' W 123°10'4 8.4
2017-Oct-13 11:01N 49°08' W 123°04'4 8.1
2017-Oct-13 10:31N 49°09' W 122°58'4 7.1
2017-Oct-13 10:00N 49°12' W 122°54'2 4.7
2017-Oct-13 09:31N 49°13' W 122°51'3 6.2
2017-Oct-13 09:00N 49°14' W 122°46'3 5.2
2017-Oct-13 08:30N 49°15' W 122°43'2 4.9
2017-Oct-13 08:00N 49°17' W 122°41'1 1.9
2017-Oct-13 07:30N 49°17' W 122°40'2 3.6
2017-Oct-13 07:00N 49°17' W 122°42'4 7.0
2017-Oct-13 06:30N 49°14' W 122°46'4 7.4
2017-Oct-13 06:00N 49°13' W 122°51'4 7.1
2017-Oct-13 05:31N 49°11' W 122°55'3 6.4
2017-Oct-13 05:01N 49°09' W 122°59'3 6.3
2017-Oct-13 04:30N 49°08' W 123°04'3 6.3
2017-Oct-13 04:00N 49°06' W 123°08'3 6.0
2017-Oct-13 03:31N 49°07' W 123°12'3 5.9
2017-Oct-13 03:00N 49°07' W 123°17'2 3.6
2017-Oct-13 02:30N 49°08' W 123°19'4 7.2
2017-Oct-13 02:01N 49°11' W 123°18'3 6.6
2017-Oct-13 01:31N 49°15' W 123°18'3 7.0
2017-Oct-13 01:01N 49°18' W 123°16'4 7.7
2017-Oct-13 00:30N 49°19' W 123°10'2 4.2
2017-Oct-13 00:01N 49°19' W 123°07'0 0.4
2017-Oct-12 23:30N 49°18' W 123°07'0 0.8
2017-Oct-12 23:01N 49°18' W 123°06'1 2.8
2017-Oct-12 22:30N 49°17' W 123°05'0 0.0
2017-Oct-12 22:01N 49°17' W 123°05'0 0.0
2017-Oct-12 21:30N 49°17' W 123°05'0 0.0
2017-Oct-12 21:01N 49°17' W 123°05'  

Dump ship's entire track history